sensor_id;sensor_type;location;lat;lon;timestamp;temperature;humidity
53645;DHT22;39547;45.554;12.068;2023-02-21T00:01:39;7.90;85.20
53645;DHT22;39547;45.554;12.068;2023-02-21T00:07:59;8.00;85.30
53645;DHT22;39547;45.554;12.068;2023-02-21T00:14:19;8.00;85.40
53645;DHT22;39547;45.554;12.068;2023-02-21T00:20:39;8.00;85.30
53645;DHT22;39547;45.554;12.068;2023-02-21T00:26:59;8.00;85.30
53645;DHT22;39547;45.554;12.068;2023-02-21T00:33:19;8.00;85.30
53645;DHT22;39547;45.554;12.068;2023-02-21T00:39:38;8.00;85.30
53645;DHT22;39547;45.554;12.068;2023-02-21T00:45:59;7.90;85.40
53645;DHT22;39547;45.554;12.068;2023-02-21T00:52:18;8.00;85.40
53645;DHT22;39547;45.554;12.068;2023-02-21T00:58:38;8.00;85.40
53645;DHT22;39547;45.554;12.068;2023-02-21T01:04:58;8.00;85.30
53645;DHT22;39547;45.554;12.068;2023-02-21T01:11:20;8.00;85.40
53645;DHT22;39547;45.554;12.068;2023-02-21T01:17:40;7.90;85.20
53645;DHT22;39547;45.554;12.068;2023-02-21T01:24:03;7.80;85.40
53645;DHT22;39547;45.554;12.068;2023-02-21T01:30:23;7.80;85.40
53645;DHT22;39547;45.554;12.068;2023-02-21T01:36:43;7.80;85.50
53645;DHT22;39547;45.554;12.068;2023-02-21T01:43:14;7.70;85.50
53645;DHT22;39547;45.554;12.068;2023-02-21T01:49:36;7.70;85.50
53645;DHT22;39547;45.554;12.068;2023-02-21T01:55:58;7.70;85.50
53645;DHT22;39547;45.554;12.068;2023-02-21T02:02:36;7.60;85.70
53645;DHT22;39547;45.554;12.068;2023-02-21T02:08:57;7.60;85.50
53645;DHT22;39547;45.554;12.068;2023-02-21T02:46:48;6.90;85.30
53645;DHT22;39547;45.554;12.068;2023-02-21T02:52:55;6.80;85.40
53645;DHT22;39547;45.554;12.068;2023-02-21T02:59:07;6.80;85.70
53645;DHT22;39547;45.554;12.068;2023-02-21T03:11:42;6.90;86.00
53645;DHT22;39547;45.554;12.068;2023-02-21T03:17:56;6.80;86.00
53645;DHT22;39547;45.554;12.068;2023-02-21T03:24:03;6.80;86.30
53645;DHT22;39547;45.554;12.068;2023-02-21T03:30:08;6.80;86.40
53645;DHT22;39547;45.554;12.068;2023-02-21T03:36:10;6.80;86.50
53645;DHT22;39547;45.554;12.068;2023-02-21T03:42:12;6.80;86.60
53645;DHT22;39547;45.554;12.068;2023-02-21T03:48:15;6.80;86.70
53645;DHT22;39547;45.554;12.068;2023-02-21T03:54:17;6.80;86.80
53645;DHT22;39547;45.554;12.068;2023-02-21T04:00:23;6.70;86.90
53645;DHT22;39547;45.554;12.068;2023-02-21T04:06:27;6.70;87.00
53645;DHT22;39547;45.554;12.068;2023-02-21T04:12:30;6.70;87.10
53645;DHT22;39547;45.554;12.068;2023-02-21T04:18:31;6.70;87.20
53645;DHT22;39547;45.554;12.068;2023-02-21T04:24:35;6.70;87.20
53645;DHT22;39547;45.554;12.068;2023-02-21T04:30:37;6.60;87.30
53645;DHT22;39547;45.554;12.068;2023-02-21T04:36:39;6.50;87.30
53645;DHT22;39547;45.554;12.068;2023-02-21T04:42:41;6.50;87.40
53645;DHT22;39547;45.554;12.068;2023-02-21T04:48:43;6.60;87.70
53645;DHT22;39547;45.554;12.068;2023-02-21T04:54:46;6.70;87.70
53645;DHT22;39547;45.554;12.068;2023-02-21T05:00:47;6.80;87.70
53645;DHT22;39547;45.554;12.068;2023-02-21T05:06:49;6.80;87.80
53645;DHT22;39547;45.554;12.068;2023-02-21T05:12:50;6.90;87.80
53645;DHT22;39547;45.554;12.068;2023-02-21T05:18:52;6.90;87.70
53645;DHT22;39547;45.554;12.068;2023-02-21T05:24:53;6.80;87.60
53645;DHT22;39547;45.554;12.068;2023-02-21T05:30:55;6.80;87.60
53645;DHT22;39547;45.554;12.068;2023-02-21T05:36:56;6.70;87.70
53645;DHT22;39547;45.554;12.068;2023-02-21T05:42:58;6.70;87.90
53645;DHT22;39547;45.554;12.068;2023-02-21T05:49:01;6.70;88.00
53645;DHT22;39547;45.554;12.068;2023-02-21T05:55:03;6.70;88.10
53645;DHT22;39547;45.554;12.068;2023-02-21T06:01:05;6.70;88.20
53645;DHT22;39547;45.554;12.068;2023-02-21T06:07:07;6.70;88.10
53645;DHT22;39547;45.554;12.068;2023-02-21T06:13:08;6.70;88.40
53645;DHT22;39547;45.554;12.068;2023-02-21T06:19:11;6.70;88.30
53645;DHT22;39547;45.554;12.068;2023-02-21T06:25:13;6.70;88.40
53645;DHT22;39547;45.554;12.068;2023-02-21T06:31:15;6.70;88.20
53645;DHT22;39547;45.554;12.068;2023-02-21T06:37:18;6.70;88.50
53645;DHT22;39547;45.554;12.068;2023-02-21T06:43:19;6.70;88.70
53645;DHT22;39547;45.554;12.068;2023-02-21T06:49:21;6.80;88.80
53645;DHT22;39547;45.554;12.068;2023-02-21T06:55:23;6.80;88.90
53645;DHT22;39547;45.554;12.068;2023-02-21T07:01:26;6.90;88.90
53645;DHT22;39547;45.554;12.068;2023-02-21T07:07:28;7.00;89.00
53645;DHT22;39547;45.554;12.068;2023-02-21T07:13:30;7.00;89.00
53645;DHT22;39547;45.554;12.068;2023-02-21T07:19:31;7.10;89.10
53645;DHT22;39547;45.554;12.068;2023-02-21T07:25:33;7.10;89.00
53645;DHT22;39547;45.554;12.068;2023-02-21T07:31:34;7.10;88.90
53645;DHT22;39547;45.554;12.068;2023-02-21T07:37:35;7.20;89.20
53645;DHT22;39547;45.554;12.068;2023-02-21T07:43:37;7.20;89.30
53645;DHT22;39547;45.554;12.068;2023-02-21T07:49:40;7.20;89.40
53645;DHT22;39547;45.554;12.068;2023-02-21T07:55:41;7.40;89.50
53645;DHT22;39547;45.554;12.068;2023-02-21T08:01:43;7.50;89.60
53645;DHT22;39547;45.554;12.068;2023-02-21T08:07:44;7.50;89.60
53645;DHT22;39547;45.554;12.068;2023-02-21T08:13:46;7.70;89.50
53645;DHT22;39547;45.554;12.068;2023-02-21T08:19:48;7.70;89.50
53645;DHT22;39547;45.554;12.068;2023-02-21T08:25:49;7.80;89.60
53645;DHT22;39547;45.554;12.068;2023-02-21T08:31:51;7.90;89.70
53645;DHT22;39547;45.554;12.068;2023-02-21T08:37:53;8.00;89.20
53645;DHT22;39547;45.554;12.068;2023-02-21T08:43:56;8.00;88.90
53645;DHT22;39547;45.554;12.068;2023-02-21T08:49:58;8.10;89.50
53645;DHT22;39547;45.554;12.068;2023-02-21T08:55:59;8.20;89.00
53645;DHT22;39547;45.554;12.068;2023-02-21T09:02:01;8.30;88.70
53645;DHT22;39547;45.554;12.068;2023-02-21T09:08:02;8.40;88.80
53645;DHT22;39547;45.554;12.068;2023-02-21T09:14:05;8.60;88.70
53645;DHT22;39547;45.554;12.068;2023-02-21T09:20:10;8.70;88.10
53645;DHT22;39547;45.554;12.068;2023-02-21T09:26:12;8.80;88.60
53645;DHT22;39547;45.554;12.068;2023-02-21T09:32:13;9.00;88.40
53645;DHT22;39547;45.554;12.068;2023-02-21T09:38:15;9.10;88.30
53645;DHT22;39547;45.554;12.068;2023-02-21T09:44:19;9.20;88.20
53645;DHT22;39547;45.554;12.068;2023-02-21T09:50:26;9.30;88.00
53645;DHT22;39547;45.554;12.068;2023-02-21T09:56:38;9.40;87.80
53645;DHT22;39547;45.554;12.068;2023-02-21T10:15:33;9.70;87.40
53645;DHT22;39547;45.554;12.068;2023-02-21T10:21:47;9.80;87.30
53645;DHT22;39547;45.554;12.068;2023-02-21T10:27:50;9.80;87.00
53645;DHT22;39547;45.554;12.068;2023-02-21T10:33:52;9.80;87.00
53645;DHT22;39547;45.554;12.068;2023-02-21T10:39:59;10.00;86.90
53645;DHT22;39547;45.554;12.068;2023-02-21T10:46:15;10.00;86.80
53645;DHT22;39547;45.554;12.068;2023-02-21T10:52:18;10.10;86.70
53645;DHT22;39547;45.554;12.068;2023-02-21T10:58:22;10.20;86.60
53645;DHT22;39547;45.554;12.068;2023-02-21T11:04:30;10.30;86.50
53645;DHT22;39547;45.554;12.068;2023-02-21T11:10:40;10.50;86.30
53645;DHT22;39547;45.554;12.068;2023-02-21T11:16:42;10.50;86.10
53645;DHT22;39547;45.554;12.068;2023-02-21T11:22:48;10.60;86.00
53645;DHT22;39547;45.554;12.068;2023-02-21T11:28:51;10.60;86.00
53645;DHT22;39547;45.554;12.068;2023-02-21T11:41:27;10.70;85.70
53645;DHT22;39547;45.554;12.068;2023-02-21T11:47:37;10.70;85.80
53645;DHT22;39547;45.554;12.068;2023-02-21T11:53:42;10.90;85.70
53645;DHT22;39547;45.554;12.068;2023-02-21T12:12:46;11.30;85.00
53645;DHT22;39547;45.554;12.068;2023-02-21T12:26:22;11.80;84.20
53645;DHT22;39547;45.554;12.068;2023-02-21T12:51:29;12.70;81.20
53645;DHT22;39547;45.554;12.068;2023-02-21T13:10:14;12.20;81.70
53645;DHT22;39547;45.554;12.068;2023-02-21T13:16:18;12.10;82.00
53645;DHT22;39547;45.554;12.068;2023-02-21T13:29:28;12.00;82.40
53645;DHT22;39547;45.554;12.068;2023-02-21T13:35:40;11.90;82.30
53645;DHT22;39547;45.554;12.068;2023-02-21T13:41:51;11.90;82.30
53645;DHT22;39547;45.554;12.068;2023-02-21T13:54:11;11.70;82.50
53645;DHT22;39547;45.554;12.068;2023-02-21T14:06:35;11.80;82.70
53645;DHT22;39547;45.554;12.068;2023-02-21T14:12:37;11.90;82.80
53645;DHT22;39547;45.554;12.068;2023-02-21T14:18:43;11.90;82.70
53645;DHT22;39547;45.554;12.068;2023-02-21T14:24:47;11.70;82.70
53645;DHT22;39547;45.554;12.068;2023-02-21T14:31:01;11.70;82.90
53645;DHT22;39547;45.554;12.068;2023-02-21T14:37:27;11.70;83.00
53645;DHT22;39547;45.554;12.068;2023-02-21T14:49:55;11.70;83.20
53645;DHT22;39547;45.554;12.068;2023-02-21T15:02:28;11.50;83.40
53645;DHT22;39547;45.554;12.068;2023-02-21T15:08:42;11.40;83.60
53645;DHT22;39547;45.554;12.068;2023-02-21T15:14:52;11.40;83.70
53645;DHT22;39547;45.554;12.068;2023-02-21T15:27:14;11.40;83.90
53645;DHT22;39547;45.554;12.068;2023-02-21T15:33:19;11.30;83.90
53645;DHT22;39547;45.554;12.068;2023-02-21T15:39:27;11.30;83.90
53645;DHT22;39547;45.554;12.068;2023-02-21T15:45:34;11.30;84.10
53645;DHT22;39547;45.554;12.068;2023-02-21T15:51:38;11.20;84.10
53645;DHT22;39547;45.554;12.068;2023-02-21T15:57:40;11.20;84.20
53645;DHT22;39547;45.554;12.068;2023-02-21T16:03:43;11.20;84.30
53645;DHT22;39547;45.554;12.068;2023-02-21T16:09:49;11.10;84.30
53645;DHT22;39547;45.554;12.068;2023-02-21T16:15:51;11.10;84.50
53645;DHT22;39547;45.554;12.068;2023-02-21T16:22:12;11.00;84.60
53645;DHT22;39547;45.554;12.068;2023-02-21T16:28:14;11.00;84.80
53645;DHT22;39547;45.554;12.068;2023-02-21T16:34:16;11.00;84.90
53645;DHT22;39547;45.554;12.068;2023-02-21T16:40:22;11.00;84.90
53645;DHT22;39547;45.554;12.068;2023-02-21T16:46:26;11.00;85.00
53645;DHT22;39547;45.554;12.068;2023-02-21T16:52:27;10.90;85.00
53645;DHT22;39547;45.554;12.068;2023-02-21T16:58:31;10.90;85.10
53645;DHT22;39547;45.554;12.068;2023-02-21T17:04:33;10.80;85.20
53645;DHT22;39547;45.554;12.068;2023-02-21T17:10:34;10.80;85.20
53645;DHT22;39547;45.554;12.068;2023-02-21T17:16:36;10.80;85.30
53645;DHT22;39547;45.554;12.068;2023-02-21T17:22:38;10.80;85.30
53645;DHT22;39547;45.554;12.068;2023-02-21T17:28:39;10.80;85.30
53645;DHT22;39547;45.554;12.068;2023-02-21T17:34:41;10.70;85.40
53645;DHT22;39547;45.554;12.068;2023-02-21T17:40:43;10.70;85.60
53645;DHT22;39547;45.554;12.068;2023-02-21T17:46:47;10.70;85.60
53645;DHT22;39547;45.554;12.068;2023-02-21T17:52:49;10.70;85.50
53645;DHT22;39547;45.554;12.068;2023-02-21T17:58:51;10.70;85.80
53645;DHT22;39547;45.554;12.068;2023-02-21T18:04:52;10.70;85.90
53645;DHT22;39547;45.554;12.068;2023-02-21T18:10:53;10.70;85.90
53645;DHT22;39547;45.554;12.068;2023-02-21T18:16:55;10.70;85.80
53645;DHT22;39547;45.554;12.068;2023-02-21T18:22:57;10.70;85.90
53645;DHT22;39547;45.554;12.068;2023-02-21T18:28:59;10.70;85.90
53645;DHT22;39547;45.554;12.068;2023-02-21T18:35:00;10.70;85.80
53645;DHT22;39547;45.554;12.068;2023-02-21T18:41:02;10.70;85.90
53645;DHT22;39547;45.554;12.068;2023-02-21T18:47:04;10.70;85.90
53645;DHT22;39547;45.554;12.068;2023-02-21T18:53:06;10.60;86.00
53645;DHT22;39547;45.554;12.068;2023-02-21T18:59:08;10.60;86.00
53645;DHT22;39547;45.554;12.068;2023-02-21T19:05:15;10.60;86.00
53645;DHT22;39547;45.554;12.068;2023-02-21T19:11:17;10.60;86.10
53645;DHT22;39547;45.554;12.068;2023-02-21T19:17:18;10.60;86.10
53645;DHT22;39547;45.554;12.068;2023-02-21T19:23:20;10.60;86.10
53645;DHT22;39547;45.554;12.068;2023-02-21T19:29:21;10.60;86.20
53645;DHT22;39547;45.554;12.068;2023-02-21T19:35:23;10.60;86.20
53645;DHT22;39547;45.554;12.068;2023-02-21T19:41:25;10.60;86.20
53645;DHT22;39547;45.554;12.068;2023-02-21T19:47:26;10.60;86.20
53645;DHT22;39547;45.554;12.068;2023-02-21T19:53:28;10.60;86.20
53645;DHT22;39547;45.554;12.068;2023-02-21T19:59:29;10.60;86.20
53645;DHT22;39547;45.554;12.068;2023-02-21T20:12:28;10.60;86.20
53645;DHT22;39547;45.554;12.068;2023-02-21T20:18:30;10.60;86.10
53645;DHT22;39547;45.554;12.068;2023-02-21T20:24:31;10.50;86.10
53645;DHT22;39547;45.554;12.068;2023-02-21T20:30:33;10.50;86.10
53645;DHT22;39547;45.554;12.068;2023-02-21T20:36:36;10.40;86.20
53645;DHT22;39547;45.554;12.068;2023-02-21T20:42:38;10.40;86.30
53645;DHT22;39547;45.554;12.068;2023-02-21T20:48:39;10.40;86.40
53645;DHT22;39547;45.554;12.068;2023-02-21T20:54:41;10.50;86.40
53645;DHT22;39547;45.554;12.068;2023-02-21T21:00:43;10.40;86.40
53645;DHT22;39547;45.554;12.068;2023-02-21T21:06:45;10.40;86.40
53645;DHT22;39547;45.554;12.068;2023-02-21T21:12:47;10.40;86.40
53645;DHT22;39547;45.554;12.068;2023-02-21T21:18:49;10.40;86.40
53645;DHT22;39547;45.554;12.068;2023-02-21T21:24:52;10.40;86.50
53645;DHT22;39547;45.554;12.068;2023-02-21T21:30:53;10.40;86.40
53645;DHT22;39547;45.554;12.068;2023-02-21T21:36:56;10.40;86.50
53645;DHT22;39547;45.554;12.068;2023-02-21T21:42:58;10.40;86.50
53645;DHT22;39547;45.554;12.068;2023-02-21T21:49:02;10.40;86.50
53645;DHT22;39547;45.554;12.068;2023-02-21T21:55:06;10.40;86.40
53645;DHT22;39547;45.554;12.068;2023-02-21T22:01:09;10.40;86.50
53645;DHT22;39547;45.554;12.068;2023-02-21T22:07:11;10.40;86.50
53645;DHT22;39547;45.554;12.068;2023-02-21T22:13:13;10.40;86.50
53645;DHT22;39547;45.554;12.068;2023-02-21T22:19:15;10.40;86.50
53645;DHT22;39547;45.554;12.068;2023-02-21T22:25:19;10.40;86.50
53645;DHT22;39547;45.554;12.068;2023-02-21T22:31:20;10.40;86.40
53645;DHT22;39547;45.554;12.068;2023-02-21T22:37:23;10.40;86.50
53645;DHT22;39547;45.554;12.068;2023-02-21T22:43:27;10.40;86.50
53645;DHT22;39547;45.554;12.068;2023-02-21T22:49:29;10.40;86.40
53645;DHT22;39547;45.554;12.068;2023-02-21T22:55:30;10.30;86.40
53645;DHT22;39547;45.554;12.068;2023-02-21T23:01:32;10.30;86.40
53645;DHT22;39547;45.554;12.068;2023-02-21T23:07:34;10.30;86.40
53645;DHT22;39547;45.554;12.068;2023-02-21T23:13:36;10.30;86.40
53645;DHT22;39547;45.554;12.068;2023-02-21T23:19:37;10.20;86.40
53645;DHT22;39547;45.554;12.068;2023-02-21T23:25:39;10.20;86.40
53645;DHT22;39547;45.554;12.068;2023-02-21T23:31:41;10.20;86.50
53645;DHT22;39547;45.554;12.068;2023-02-21T23:37:44;10.30;86.50
53645;DHT22;39547;45.554;12.068;2023-02-21T23:43:46;10.20;86.50
53645;DHT22;39547;45.554;12.068;2023-02-21T23:49:47;10.20;86.50
53645;DHT22;39547;45.554;12.068;2023-02-21T23:55:49;10.20;86.50
